首页
METAR-TAF:

METAR-TAF

机场 :

華雷斯城, 墨西哥

纬度: 31-38N, 经度: 106-26W, 海拔: 1171米

当前天气观测

该预报发布于5小时和29分钟前的02:40 UTC
风速12节,风向东北
温度 28°C
湿度 42%
气压 1020 hPa
能見度: 16.1公里
散云层高于8000英尺
散云层高于20000英尺

METAR: MMCS 220240Z 04012KT 10SM SCT080 SCT200 28/14 A3011 RMK SLP077 52009 906 8/072

时间: 02:09 (08:09 UTC)

预报

该预报发布于3小时和38分钟前的04:31 UTC
预报有效从22日的 06点(UTC)到 23日的 06点(UTC)
风速8节,风向东转东北
能見度: 10公里
散云层高于3000英尺
散云层高于10000英尺
短暂存在
从 22日的 07点(UTC)到 22日的 11点(UTC)
能見度: 8.0公里
多云层高于3000英尺, 积雨云.
从 22日的 1200点(UTC)
风速8节,风向东转东北
能見度: 10公里
散云层高于3000英尺
多云层高于10000英尺
成为
从 22日的 18点(UTC)到 22日的 20点(UTC)
风速15节,风向
散云层高于3000英尺
散云层高于10000英尺
短暂存在
从 22日的 22点(UTC)到 23日的 02点(UTC)
多云层高于3000英尺
附近有, 雨
从 23日的 0300点(UTC)
风速10节,风向
能見度: 10公里
散云层高于3000英尺

TAF: MMCS 220431Z 2206/2306 07008KT P6SM SCT030 SCT100 TEMPO 2207/2211 5SM RA BKN030CB FM221200 07008KT P6SM SCT030 BKN100 BECMG 2218/2220 10015KT SCT030 SCT100 TEMPO 2222/2302 VCRA BKN030 FM230300 10010KT P6SM SCT030

超过4000个机场的气象观测和天气预报(METAR&TAF报告)。

可查询的气象台以黄色和红色小点在地图上表示。

将鼠标移到小点上方,可查看气象台名称。

然后点击查看天气观测和预报。

如需切换地图:点击带黑十字的绿色按钮放大地图;点击带横线的绿色按钮缩小地图;或者点击绿色箭头查看邻近地区的地图。


METAR-TAF: